createdAt,value
2022-12-19T00:00:32.582Z,-1.80
2022-12-19T00:03:00.671Z,-1.80
2022-12-19T00:05:28.686Z,-1.80
2022-12-19T00:07:57.173Z,-1.80
2022-12-19T00:10:26.887Z,-1.80
2022-12-19T00:12:54.858Z,-1.70
2022-12-19T00:15:22.803Z,-1.70
2022-12-19T00:17:52.057Z,-1.70
2022-12-19T00:20:20.153Z,-1.70
2022-12-19T00:22:48.109Z,-1.70
2022-12-19T00:25:18.948Z,-1.70
2022-12-19T00:27:49.753Z,-1.70
2022-12-19T00:30:18.648Z,-1.60
2022-12-19T00:32:47.603Z,-1.60
2022-12-19T00:35:17.073Z,-1.60
2022-12-19T00:37:49.313Z,-1.60
2022-12-19T00:40:18.055Z,-1.60
2022-12-19T00:42:51.751Z,-1.50
2022-12-19T00:45:21.600Z,-1.50
2022-12-19T00:47:49.600Z,-1.50
2022-12-19T00:50:18.906Z,-1.50
2022-12-19T00:52:46.854Z,-1.50
2022-12-19T00:55:19.025Z,-1.50
2022-12-19T00:57:47.789Z,-1.50
2022-12-19T01:00:17.029Z,-1.50
2022-12-19T01:02:45.330Z,-1.50
2022-12-19T01:05:13.387Z,-1.50
2022-12-19T01:07:43.695Z,-1.50
2022-12-19T01:10:12.025Z,-1.40
2022-12-19T01:12:47.736Z,-1.40
2022-12-19T01:15:21.095Z,-1.50
2022-12-19T01:17:49.701Z,-1.40
2022-12-19T01:20:29.282Z,-1.40
2022-12-19T01:23:00.218Z,-1.40
2022-12-19T01:25:28.580Z,-1.30
2022-12-19T01:27:56.622Z,-1.30
2022-12-19T01:30:24.889Z,-1.30
2022-12-19T01:32:54.279Z,-1.30
2022-12-19T01:35:22.488Z,-1.20
2022-12-19T01:37:51.160Z,-1.20
2022-12-19T01:40:21.720Z,-1.20
2022-12-19T01:42:50.899Z,-1.20
2022-12-19T01:45:34.490Z,-1.10
2022-12-19T01:48:16.365Z,-1.10
2022-12-19T01:51:01.259Z,-1.10
2022-12-19T01:53:41.867Z,-1.10
2022-12-19T01:56:20.490Z,-1.10
2022-12-19T01:58:51.039Z,-1.10
2022-12-19T02:01:27.137Z,-1.00
2022-12-19T02:03:57.382Z,-1.00
2022-12-19T02:06:26.126Z,-1.00
2022-12-19T02:08:54.988Z,-1.00
2022-12-19T02:11:24.297Z,-1.00
2022-12-19T02:13:52.507Z,-0.90
2022-12-19T02:16:30.267Z,-0.90
2022-12-19T02:19:18.672Z,-0.90
2022-12-19T02:21:54.966Z,-0.90
2022-12-19T02:24:52.953Z,-0.80
2022-12-19T02:28:00.935Z,-0.90
2022-12-19T02:30:58.918Z,-0.80
2022-12-19T02:33:40.699Z,-0.90
2022-12-19T02:36:16.379Z,-0.80
2022-12-19T02:38:51.443Z,-0.90
2022-12-19T02:41:24.048Z,-0.80
2022-12-19T02:43:58.799Z,-0.90
2022-12-19T02:46:30.573Z,-0.90
2022-12-19T02:48:59.468Z,-0.90
2022-12-19T02:51:27.531Z,-0.90
2022-12-19T02:53:55.605Z,-0.90
2022-12-19T02:56:36.115Z,-0.90
2022-12-19T02:59:18.957Z,-0.90
2022-12-19T03:01:52.125Z,-0.90
2022-12-19T03:04:32.617Z,-0.90
2022-12-19T03:07:04.777Z,-0.90
2022-12-19T03:09:42.110Z,-0.90
2022-12-19T03:12:17.524Z,-0.80
2022-12-19T03:14:46.929Z,-0.80
2022-12-19T03:17:16.480Z,-0.80
2022-12-19T03:19:48.300Z,-0.80
2022-12-19T03:22:16.317Z,-0.70
2022-12-19T03:24:44.466Z,-0.70
2022-12-19T03:27:17.499Z,-0.70
2022-12-19T03:29:50.440Z,-0.70
2022-12-19T03:32:22.258Z,-0.70
2022-12-19T03:34:56.601Z,-0.70
2022-12-19T03:37:32.568Z,-0.60
2022-12-19T03:40:05.279Z,-0.60
2022-12-19T03:42:52.115Z,-0.60
2022-12-19T03:45:26.896Z,-0.60
2022-12-19T03:47:59.290Z,-0.60
2022-12-19T03:50:33.224Z,-0.50
2022-12-19T03:53:11.961Z,-0.50
2022-12-19T03:55:43.809Z,-0.50
2022-12-19T03:58:18.269Z,-0.40
2022-12-19T04:00:47.365Z,-0.40
2022-12-19T04:03:18.493Z,-0.40
2022-12-19T04:05:47.683Z,-0.40
2022-12-19T04:08:16.866Z,-0.40
2022-12-19T04:10:58.507Z,-0.30
2022-12-19T04:13:34.067Z,-0.30
2022-12-19T04:16:09.213Z,-0.30
2022-12-19T04:18:40.551Z,-0.30
2022-12-19T04:21:14.157Z,-0.30
2022-12-19T04:23:47.447Z,-0.20
2022-12-19T04:26:19.754Z,-0.20
2022-12-19T04:28:51.835Z,-0.20
2022-12-19T04:31:22.096Z,-0.20
2022-12-19T04:33:51.462Z,-0.20
2022-12-19T04:36:19.541Z,-0.10
2022-12-19T04:38:47.498Z,-0.10
2022-12-19T04:41:15.404Z,-0.10
2022-12-19T04:43:43.398Z,-0.10
2022-12-19T04:46:11.426Z,0.00
2022-12-19T04:48:39.333Z,0.00
2022-12-19T04:51:08.896Z,0.00
2022-12-19T04:53:36.889Z,0.00
2022-12-19T04:56:06.772Z,0.00
2022-12-19T04:58:35.020Z,0.00
2022-12-19T05:01:03.743Z,0.00
2022-12-19T05:03:32.559Z,0.10
2022-12-19T05:06:10.337Z,0.10
2022-12-19T05:08:39.776Z,0.00
2022-12-19T05:11:08.781Z,0.10
2022-12-19T05:13:37.171Z,0.10
2022-12-19T05:16:06.984Z,0.10
2022-12-19T05:18:35.650Z,0.10
2022-12-19T05:21:03.863Z,0.10
2022-12-19T05:23:33.290Z,0.10
2022-12-19T05:26:02.629Z,0.20
2022-12-19T05:28:31.112Z,0.20
2022-12-19T05:31:07.462Z,0.30
2022-12-19T05:33:36.018Z,0.30
2022-12-19T05:36:05.014Z,0.30
2022-12-19T05:38:34.342Z,0.40
2022-12-19T05:41:07.774Z,0.30
2022-12-19T05:43:35.726Z,0.30
2022-12-19T05:46:05.772Z,0.30
2022-12-19T05:48:33.940Z,0.30
2022-12-19T05:51:02.212Z,0.20
2022-12-19T05:53:30.477Z,0.30
2022-12-19T05:56:06.608Z,0.30
2022-12-19T05:58:37.513Z,0.40
2022-12-19T06:01:06.315Z,0.40
2022-12-19T06:03:34.410Z,0.40
2022-12-19T06:06:04.677Z,0.40
2022-12-19T06:08:33.407Z,0.50
2022-12-19T06:11:02.251Z,0.50
2022-12-19T06:13:32.480Z,0.50
2022-12-19T06:16:00.695Z,0.60
2022-12-19T06:18:29.437Z,0.60
2022-12-19T06:21:00.721Z,0.60
2022-12-19T06:23:29.757Z,0.70
2022-12-19T06:25:58.486Z,0.70
2022-12-19T06:28:26.923Z,0.80
2022-12-19T06:30:58.423Z,0.90
2022-12-19T06:33:26.893Z,1.00
2022-12-19T06:35:59.498Z,1.00
2022-12-19T06:38:27.715Z,1.00
2022-12-19T06:41:12.936Z,1.10
2022-12-19T06:43:41.350Z,1.10
2022-12-19T06:46:11.219Z,1.10
2022-12-19T06:48:39.249Z,1.10
2022-12-19T06:51:07.805Z,1.10
2022-12-19T06:53:36.162Z,1.10
2022-12-19T06:56:05.308Z,1.10
2022-12-19T06:58:34.870Z,1.20
2022-12-19T07:01:02.887Z,1.20
2022-12-19T07:03:42.043Z,1.20
2022-12-19T07:06:10.045Z,1.20
2022-12-19T07:08:38.009Z,1.20
2022-12-19T07:11:06.150Z,1.20
2022-12-19T07:13:34.181Z,1.20
2022-12-19T07:16:04.347Z,1.20
2022-12-19T07:18:36.443Z,1.30
2022-12-19T07:21:05.761Z,1.30
2022-12-19T07:23:35.182Z,1.40
2022-12-19T07:26:03.273Z,1.30
2022-12-19T07:28:31.409Z,1.40
2022-12-19T07:30:59.373Z,1.40
2022-12-19T07:33:27.365Z,1.40
2022-12-19T07:35:56.665Z,1.50
2022-12-19T07:38:24.617Z,1.40
2022-12-19T07:40:52.549Z,1.50
2022-12-19T07:43:20.449Z,1.40
2022-12-19T07:45:48.444Z,1.40
2022-12-19T07:48:16.422Z,1.40
2022-12-19T07:50:46.173Z,1.50
2022-12-19T07:53:15.497Z,1.50
2022-12-19T07:55:43.771Z,1.50
2022-12-19T07:58:11.715Z,1.50
2022-12-19T08:00:42.350Z,1.60
2022-12-19T08:03:10.444Z,1.60
2022-12-19T08:05:39.715Z,1.60
2022-12-19T08:08:08.804Z,1.60
2022-12-19T08:10:39.258Z,1.60
2022-12-19T08:13:07.207Z,1.60
2022-12-19T08:15:35.161Z,1.60
2022-12-19T08:18:03.506Z,1.50
2022-12-19T08:20:31.466Z,1.50
2022-12-19T08:22:59.403Z,1.50
2022-12-19T08:25:27.378Z,1.60
2022-12-19T08:27:56.653Z,1.60
2022-12-19T08:30:25.700Z,1.60
2022-12-19T08:32:53.644Z,1.70
2022-12-19T08:35:21.598Z,1.70
2022-12-19T08:37:49.548Z,1.70
2022-12-19T08:40:17.538Z,1.70
2022-12-19T08:42:45.474Z,1.70
2022-12-19T08:45:14.946Z,1.70
2022-12-19T08:47:43.573Z,1.70
2022-12-19T08:50:12.074Z,1.80
2022-12-19T08:52:40.026Z,1.80
2022-12-19T08:55:10.016Z,1.80
2022-12-19T08:57:38.084Z,1.80
2022-12-19T09:00:06.745Z,1.80
2022-12-19T09:02:37.086Z,1.80
2022-12-19T09:06:01.258Z,1.90
2022-12-19T09:07:54.010Z,1.90
2022-12-19T09:10:22.164Z,2.00
2022-12-19T09:12:54.480Z,2.00
2022-12-19T09:15:25.715Z,2.10
2022-12-19T09:17:54.971Z,2.10
2022-12-19T09:20:23.795Z,2.20
2022-12-19T09:22:51.915Z,2.30
2022-12-19T09:25:19.891Z,2.30
2022-12-19T09:28:25.825Z,2.40
2022-12-19T09:30:36.018Z,2.50
2022-12-19T09:33:05.903Z,2.50
2022-12-19T09:35:33.882Z,2.60
2022-12-19T09:38:03.528Z,2.60
2022-12-19T09:40:45.110Z,2.60
2022-12-19T09:43:27.945Z,2.60
2022-12-19T09:46:05.336Z,2.70
2022-12-19T09:48:34.703Z,2.70
2022-12-19T09:51:10.029Z,2.80
2022-12-19T09:53:53.760Z,2.80
2022-12-19T09:56:27.097Z,2.80
2022-12-19T09:59:01.826Z,2.80
2022-12-19T10:01:36.401Z,2.80
2022-12-19T10:04:11.848Z,2.80
2022-12-19T10:07:16.199Z,2.80
2022-12-19T10:12:15.496Z,2.80
2022-12-19T10:12:44.449Z,2.80
2022-12-19T10:15:25.164Z,2.80
2022-12-19T10:18:15.425Z,2.70
2022-12-19T10:20:49.568Z,2.80
2022-12-19T10:23:42.238Z,2.80
2022-12-19T10:26:15.767Z,2.90
2022-12-19T10:29:00.928Z,3.00
2022-12-19T10:31:34.991Z,3.00
2022-12-19T10:34:16.384Z,3.00
2022-12-19T10:37:20.902Z,3.10
2022-12-19T10:39:52.090Z,3.20
2022-12-19T10:42:33.464Z,3.30
2022-12-19T10:45:10.469Z,3.40
2022-12-19T10:47:38.569Z,3.50
2022-12-19T10:50:09.700Z,3.60
2022-12-19T10:52:51.099Z,3.70
2022-12-19T10:55:44.476Z,3.80
2022-12-19T10:58:22.362Z,3.90
2022-12-19T11:01:12.010Z,4.00
2022-12-19T11:03:42.732Z,4.20
2022-12-19T11:06:55.616Z,4.30
2022-12-19T11:09:28.855Z,4.30
2022-12-19T11:16:30.396Z,4.40
2022-12-19T11:18:20.952Z,4.40
2022-12-19T11:25:11.375Z,4.50
2022-12-19T11:29:27.659Z,4.70
2022-12-19T11:29:53.419Z,4.70
2022-12-19T11:30:09.516Z,4.70
2022-12-19T11:30:47.664Z,4.70
2022-12-19T11:34:37.894Z,4.60
2022-12-19T11:37:21.239Z,4.60
2022-12-19T11:39:52.367Z,4.70
2022-12-19T11:42:28.401Z,4.70
2022-12-19T11:45:03.411Z,4.70
2022-12-19T11:47:38.000Z,4.60
2022-12-19T11:50:15.581Z,4.60
2022-12-19T11:53:07.770Z,4.60
2022-12-19T11:55:43.816Z,4.60
2022-12-19T11:58:13.912Z,4.70
2022-12-19T12:00:50.232Z,4.60
2022-12-19T12:03:49.511Z,4.60
2022-12-19T12:06:34.893Z,4.60
2022-12-19T12:10:37.676Z,4.60
2022-12-19T12:21:44.741Z,4.60
2022-12-19T12:29:08.056Z,4.60
2022-12-19T12:31:12.378Z,4.60
2022-12-19T12:31:46.188Z,4.60
2022-12-19T12:31:47.167Z,4.70
2022-12-19T12:31:55.170Z,4.60
2022-12-19T12:32:00.364Z,4.70
2022-12-19T12:35:47.067Z,4.60
2022-12-19T12:39:25.496Z,4.60
2022-12-19T12:42:09.002Z,4.70
2022-12-19T12:44:45.279Z,4.70
2022-12-19T12:47:18.826Z,4.80
2022-12-19T12:49:49.904Z,4.80
2022-12-19T12:52:21.183Z,4.90
2022-12-19T12:54:50.584Z,5.00
2022-12-19T12:57:21.071Z,5.10
2022-12-19T13:00:19.507Z,5.10
2022-12-19T13:02:51.052Z,5.20
2022-12-19T13:05:41.703Z,5.30
2022-12-19T13:08:28.739Z,5.30
2022-12-19T13:10:59.050Z,5.40
2022-12-19T13:13:52.856Z,5.40
2022-12-19T13:16:55.987Z,5.40
2022-12-19T13:19:28.767Z,5.40
2022-12-19T13:22:21.632Z,5.40
2022-12-19T13:24:51.513Z,5.40
2022-12-19T13:27:39.133Z,5.40
2022-12-19T13:30:19.404Z,5.30
2022-12-19T13:33:11.103Z,5.30
2022-12-19T13:39:24.843Z,5.30
2022-12-19T13:39:57.111Z,5.30
2022-12-19T13:41:48.140Z,5.30
2022-12-19T13:44:20.659Z,5.40
2022-12-19T13:46:49.166Z,5.40
2022-12-19T13:49:22.428Z,5.40
2022-12-19T13:51:55.062Z,5.30
2022-12-19T13:54:26.886Z,5.30
2022-12-19T13:56:55.776Z,5.20
2022-12-19T13:59:27.359Z,5.20
2022-12-19T14:01:56.363Z,5.20
2022-12-19T14:04:31.172Z,5.20
2022-12-19T14:07:02.292Z,5.10
2022-12-19T14:11:32.550Z,5.10
2022-12-19T14:13:39.995Z,5.10
2022-12-19T14:15:34.547Z,5.00
2022-12-19T14:18:41.701Z,4.90
2022-12-19T14:22:05.554Z,4.80
2022-12-19T14:24:12.755Z,4.80
2022-12-19T14:28:19.922Z,4.70
2022-12-19T14:30:26.670Z,4.70
2022-12-19T14:33:39.795Z,4.70
2022-12-19T14:36:05.218Z,4.70
2022-12-19T14:39:25.665Z,4.60
2022-12-19T14:41:07.943Z,4.60
2022-12-19T14:43:59.578Z,4.60
2022-12-19T14:54:02.814Z,4.60
2022-12-19T14:54:23.042Z,4.50
2022-12-19T14:54:44.052Z,4.70
2022-12-19T14:56:12.352Z,4.90
2022-12-19T14:58:56.154Z,4.60
2022-12-19T15:01:24.171Z,4.60
2022-12-19T15:04:51.788Z,4.70
2022-12-19T15:07:07.695Z,4.50
2022-12-19T15:10:58.653Z,4.50
2022-12-19T15:14:46.811Z,4.50
2022-12-19T15:15:45.531Z,4.40
2022-12-19T15:18:22.342Z,4.30
2022-12-19T15:20:50.912Z,4.40
2022-12-19T15:23:22.277Z,4.40
2022-12-19T15:26:08.304Z,3.50
2022-12-19T15:28:43.210Z,4.30
2022-12-19T15:31:24.831Z,4.30
2022-12-19T15:34:23.745Z,4.20
2022-12-19T15:36:41.542Z,4.30
2022-12-19T15:39:09.586Z,4.30
2022-12-19T15:41:37.786Z,4.30
2022-12-19T15:44:10.713Z,4.30
2022-12-19T15:46:43.007Z,4.30
2022-12-19T15:49:16.552Z,4.50
2022-12-19T15:51:44.824Z,4.50
2022-12-19T15:54:47.204Z,4.40
2022-12-19T15:57:00.970Z,4.40
2022-12-19T15:59:37.834Z,4.50
2022-12-19T16:02:17.557Z,4.80
2022-12-19T16:04:47.337Z,4.40
2022-12-19T16:07:20.490Z,4.60
2022-12-19T16:09:49.199Z,4.40
2022-12-19T16:12:19.506Z,4.40
2022-12-19T16:14:54.583Z,4.40
2022-12-19T16:17:26.111Z,4.40
2022-12-19T16:19:54.100Z,4.30
2022-12-19T16:22:24.414Z,4.10
2022-12-19T16:24:54.027Z,4.10
2022-12-19T16:27:27.706Z,4.00
2022-12-19T16:29:59.221Z,4.00
2022-12-19T16:32:27.454Z,4.10
2022-12-19T16:34:55.524Z,4.00
2022-12-19T16:37:30.198Z,4.00
2022-12-19T16:40:00.149Z,4.10
2022-12-19T16:42:29.123Z,3.90
2022-12-19T16:44:58.577Z,3.90
2022-12-19T16:47:26.656Z,4.10
2022-12-19T16:49:54.836Z,4.10
2022-12-19T16:52:23.085Z,4.20
2022-12-19T16:54:51.150Z,4.70
2022-12-19T16:57:22.258Z,3.90
2022-12-19T16:59:51.324Z,4.00
2022-12-19T17:02:43.943Z,3.90
2022-12-19T17:05:18.604Z,4.10
2022-12-19T17:07:47.467Z,3.80
2022-12-19T17:10:19.841Z,3.60
2022-12-19T17:12:51.028Z,3.70
2022-12-19T17:15:25.136Z,3.70
2022-12-19T17:17:55.390Z,3.50
2022-12-19T17:20:26.206Z,3.70
2022-12-19T17:22:54.576Z,3.60
2022-12-19T17:25:24.504Z,3.50
2022-12-19T17:27:53.673Z,3.50
2022-12-19T17:30:22.311Z,3.40
2022-12-19T17:32:54.102Z,3.30
2022-12-19T17:35:28.800Z,3.60
2022-12-19T17:37:58.011Z,3.50
2022-12-19T17:40:28.131Z,3.70
2022-12-19T17:42:56.868Z,3.70
2022-12-19T17:45:25.953Z,3.70
2022-12-19T17:48:02.124Z,3.80
2022-12-19T17:50:41.664Z,3.70
2022-12-19T17:53:14.472Z,3.80
2022-12-19T17:55:43.035Z,3.90
2022-12-19T17:58:11.668Z,4.00
2022-12-19T18:00:41.278Z,4.30
2022-12-19T18:03:18.408Z,4.60
2022-12-19T18:05:48.277Z,4.70
2022-12-19T18:08:28.179Z,4.60
2022-12-19T18:10:58.887Z,4.50
2022-12-19T18:13:28.150Z,4.60
2022-12-19T18:15:58.713Z,4.80
2022-12-19T18:18:29.868Z,4.70
2022-12-19T18:21:00.900Z,4.80
2022-12-19T18:23:30.429Z,5.00
2022-12-19T18:26:01.809Z,4.90
2022-12-19T18:28:30.835Z,4.80
2022-12-19T18:31:02.018Z,5.00
2022-12-19T18:33:35.808Z,5.10
2022-12-19T18:36:06.914Z,5.10
2022-12-19T18:38:35.258Z,5.20
2022-12-19T18:41:03.236Z,5.30
2022-12-19T18:43:32.775Z,5.30
2022-12-19T18:46:00.846Z,5.40
2022-12-19T18:48:32.469Z,5.50
2022-12-19T18:51:02.042Z,5.50
2022-12-19T18:53:35.667Z,5.40
2022-12-19T18:56:05.330Z,5.60
2022-12-19T18:58:33.487Z,5.70
2022-12-19T19:01:02.748Z,5.80
2022-12-19T19:03:32.952Z,5.80
2022-12-19T19:06:01.412Z,5.80
2022-12-19T19:08:32.858Z,5.90
2022-12-19T19:11:12.219Z,5.80
2022-12-19T19:13:40.228Z,6.00
2022-12-19T19:16:17.290Z,6.00
2022-12-19T19:18:47.830Z,6.00
2022-12-19T19:21:16.505Z,6.10
2022-12-19T19:23:49.539Z,6.10
2022-12-19T19:26:17.578Z,6.10
2022-12-19T19:28:51.755Z,6.10
2022-12-19T19:31:23.192Z,6.10
2022-12-19T19:33:54.912Z,6.00
2022-12-19T19:36:29.120Z,6.00
2022-12-19T19:38:58.797Z,6.00
2022-12-19T19:41:29.864Z,6.00
2022-12-19T19:43:58.652Z,5.90
2022-12-19T19:46:26.793Z,6.00
2022-12-19T19:48:54.964Z,6.00
2022-12-19T19:51:22.964Z,6.00
2022-12-19T19:53:52.093Z,6.00
2022-12-19T19:56:21.351Z,6.00
2022-12-19T19:58:49.336Z,6.10
2022-12-19T20:01:17.401Z,6.10
2022-12-19T20:03:45.589Z,6.20
2022-12-19T20:06:14.553Z,6.30
2022-12-19T20:08:42.731Z,6.40
2022-12-19T20:11:11.635Z,6.60
2022-12-19T20:13:41.049Z,7.00
2022-12-19T20:16:13.947Z,6.60
2022-12-19T20:18:42.734Z,6.70
2022-12-19T20:21:13.655Z,6.70
2022-12-19T20:23:43.499Z,6.80
2022-12-19T20:26:13.054Z,6.80
2022-12-19T20:28:48.371Z,7.00
2022-12-19T20:31:17.947Z,6.90
2022-12-19T20:33:46.257Z,6.90
2022-12-19T20:36:15.526Z,7.00
2022-12-19T20:38:43.819Z,7.00
2022-12-19T20:41:13.035Z,7.00
2022-12-19T20:43:42.869Z,7.00
2022-12-19T20:46:13.773Z,7.00
2022-12-19T20:48:44.655Z,7.00
2022-12-19T20:51:13.771Z,7.00
2022-12-19T20:53:42.787Z,7.10
2022-12-19T20:56:14.336Z,7.10
2022-12-19T20:58:43.853Z,7.20
2022-12-19T21:01:14.414Z,7.20
2022-12-19T21:03:42.951Z,7.20
2022-12-19T21:06:13.494Z,7.20
2022-12-19T21:08:42.320Z,7.20
2022-12-19T21:11:11.522Z,7.30
2022-12-19T21:13:41.083Z,7.30
2022-12-19T21:16:14.914Z,7.30
2022-12-19T21:18:44.307Z,7.30
2022-12-19T21:21:16.122Z,7.40
2022-12-19T21:23:44.775Z,7.40
2022-12-19T21:26:13.099Z,7.50
2022-12-19T21:28:41.728Z,7.50
2022-12-19T21:31:16.474Z,7.60
2022-12-19T21:33:45.559Z,7.60
2022-12-19T21:36:19.209Z,7.70
2022-12-19T21:38:48.265Z,7.70
2022-12-19T21:41:19.043Z,7.80
2022-12-19T21:43:48.727Z,7.90
2022-12-19T21:46:18.991Z,7.90
2022-12-19T21:48:49.213Z,8.10
2022-12-19T21:51:19.520Z,8.00
2022-12-19T21:53:48.067Z,8.10
2022-12-19T21:56:24.204Z,8.10
2022-12-19T21:58:53.671Z,8.20
2022-12-19T22:01:23.715Z,8.20
2022-12-19T22:03:52.902Z,8.20
2022-12-19T22:06:28.166Z,8.20
2022-12-19T22:08:57.480Z,8.20
2022-12-19T22:11:25.750Z,8.20
2022-12-19T22:13:54.493Z,8.30
2022-12-19T22:16:24.081Z,8.40
2022-12-19T22:18:53.043Z,8.40
2022-12-19T22:21:22.298Z,8.40
2022-12-19T22:23:50.566Z,8.40
2022-12-19T22:26:20.291Z,8.40
2022-12-19T22:28:51.021Z,8.50
2022-12-19T22:31:21.521Z,8.50
2022-12-19T22:33:52.398Z,8.50
2022-12-19T22:36:27.598Z,8.70
2022-12-19T22:38:57.271Z,8.70
2022-12-19T22:41:25.817Z,8.60
2022-12-19T22:43:54.859Z,8.60
2022-12-19T22:46:26.326Z,8.60
2022-12-19T22:48:57.945Z,8.60
2022-12-19T22:51:27.606Z,8.70
2022-12-19T22:53:55.816Z,8.70
2022-12-19T22:56:25.924Z,8.70
2022-12-19T22:58:56.027Z,8.70
2022-12-19T23:01:26.651Z,8.80
2022-12-19T23:03:57.740Z,8.70
2022-12-19T23:06:27.541Z,8.70
2022-12-19T23:08:55.704Z,9.60
2022-12-19T23:11:27.382Z,8.70
2022-12-19T23:13:55.589Z,8.70
2022-12-19T23:16:23.901Z,8.60
2022-12-19T23:18:52.152Z,8.80
2022-12-19T23:21:23.502Z,8.70
2022-12-19T23:23:54.186Z,8.70
2022-12-19T23:26:25.916Z,8.70
2022-12-19T23:28:56.338Z,8.70
2022-12-19T23:31:24.868Z,8.70
2022-12-19T23:33:53.534Z,8.80
2022-12-19T23:37:00.403Z,8.80
2022-12-19T23:39:12.058Z,8.80
2022-12-19T23:41:41.246Z,8.70
2022-12-19T23:44:09.850Z,8.60
2022-12-19T23:46:38.565Z,8.60
2022-12-19T23:49:06.723Z,8.60
2022-12-19T23:51:36.231Z,8.70
2022-12-19T23:54:04.491Z,8.70
2022-12-19T23:56:34.792Z,8.80
2022-12-19T23:59:04.548Z,8.80
